Rechercher aéroport 
image banner adimage banner ad
image banner ad

SVDZ - Centro Miranda

Situé à Maracaibo, Venezuela

ICAO - SVDZ, IATA -

Données fournies par Airmate  

Information générale

Coordonnées: N10°38'55" W71°37'30"
Élévation : 146 feet MSL.
 
Voir autres Aéroports à Apure

Données opérationnelles

Accessible au public
Heure actuelle UTC:
Heure actuelle locale:
Météo à : SVMC - Maracaibo / La Chinita Intl ( 15 km )
METAR: SVMC 261402Z AUTO 04008KT NCD 28/22 Q1012
TAF: TAF SVMC 261000Z 2612/2712 17005KT 9999 SCT016 TX34/2619Z TN25/2608Z BECMG 2612/2616 11002KT 9000 -DZ BKN016
Voir NOTAMs / SUP AIP / TFR affectant cet aéroport [VIEW]
Fréquences de communication: [VIEW]

Pistes:

Coordonnées de l'aéroport

Adresse: Maracaibo Venezuela

Vue satellite de SVDZ